Time;durP1;ratioP1;P1;durP2;ratioP2;P2;SDS_P1;SDS_P2;PMS_P1;PMS_P2;Temp;Humidity;BMP_temperature;BMP_pressure;BME280_temperature;BME280_humidity;BME280_pressure;Samples;Min_cycle;Max_cycle;Signal;HPM_P1;HPM_P2
2024/02/08 00:01:36;;;;;;;35.30;6.57;;;3.20;99.90;;;;;;5075668;28;20225;-47
2024/02/08 00:04:02;;;;;;;23.33;5.82;;;3.20;99.90;;;;;;5062163;28;20763;-45
2024/02/08 00:06:31;;;;;;;20.70;6.28;;;3.10;99.90;;;;;;5063502;28;20541;-47
2024/02/08 00:09:00;;;;;;;22.48;6.35;;;3.20;99.90;;;;;;5062972;28;20193;-46
2024/02/08 00:11:26;;;;;;;24.80;6.70;;;3.10;99.90;;;;;;5063224;28;20263;-48
2024/02/08 00:13:52;;;;;;;28.42;7.85;;;3.10;99.90;;;;;;5062995;28;20222;-51
2024/02/08 00:16:18;;;;;;;32.05;8.10;;;3.10;99.90;;;;;;5062331;28;20225;-48
2024/02/08 00:18:44;;;;;;;27.75;8.32;;;3.10;99.90;;;;;;5063109;28;20226;-44
2024/02/08 00:21:10;;;;;;;24.00;7.13;;;3.10;99.90;;;;;;5061636;28;20211;-47
2024/02/08 00:23:39;;;;;;;21.55;7.82;;;3.10;99.90;;;;;;5077413;28;20182;-47
2024/02/08 00:26:05;;;;;;;24.35;7.25;;;3.10;99.90;;;;;;5062346;28;20511;-47
2024/02/08 00:28:31;;;;;;;29.05;7.28;;;3.10;99.90;;;;;;5063038;28;20248;-51
2024/02/08 00:30:56;;;;;;;24.58;7.40;;;3.00;99.90;;;;;;5062341;28;20202;-45
2024/02/08 00:33:25;;;;;;;27.02;6.88;;;3.00;99.90;;;;;;5062574;28;20222;-48
2024/02/08 00:35:52;;;;;;;28.17;7.43;;;3.00;99.90;;;;;;5062686;28;20206;-44
2024/02/08 00:38:18;;;;;;;22.38;7.30;;;3.00;99.90;;;;;;5061234;28;20194;-46
2024/02/08 00:40:46;;;;;;;22.27;6.75;;;3.00;99.90;;;;;;5061740;28;20281;-48
2024/02/08 00:43:12;;;;;;;20.42;6.72;;;3.00;99.90;;;;;;5061372;28;20191;-49
2024/02/08 00:45:37;;;;;;;24.40;6.72;;;3.00;99.90;;;;;;5060998;28;20206;-49
2024/02/08 00:48:04;;;;;;;23.33;6.35;;;3.00;99.90;;;;;;5062631;28;20186;-44
2024/02/08 00:50:30;;;;;;;27.63;6.25;;;3.00;99.90;;;;;;5062565;28;20654;-46
2024/02/08 00:52:58;;;;;;;21.45;6.10;;;3.00;99.90;;;;;;5062339;28;20249;-44
2024/02/08 00:55:26;;;;;;;24.42;6.05;;;3.00;99.90;;;;;;5062371;28;20769;-40
2024/02/08 00:57:54;;;;;;;27.90;6.15;;;3.10;99.90;;;;;;5062607;28;20560;-43
2024/02/08 01:00:20;;;;;;;22.92;5.88;;;3.00;99.90;;;;;;5061205;28;20584;-46
2024/02/08 01:02:46;;;;;;;23.50;6.40;;;3.00;99.90;;;;;;5062523;28;20202;-47
2024/02/08 01:05:11;;;;;;;22.88;5.82;;;3.00;99.90;;;;;;5062769;28;20178;-44
2024/02/08 01:07:37;;;;;;;23.45;6.30;;;3.00;99.90;;;;;;5062408;28;20186;-48
2024/02/08 01:10:07;;;;;;;22.10;5.85;;;3.00;99.90;;;;;;5062256;28;20400;-44
2024/02/08 01:12:33;;;;;;;18.05;5.80;;;3.00;99.90;;;;;;5062641;28;20187;-45
2024/02/08 01:14:59;;;;;;;36.50;6.35;;;3.00;99.90;;;;;;5061916;28;20197;-44
2024/02/08 01:17:25;;;;;;;24.08;6.07;;;3.00;99.90;;;;;;5062141;28;20186;-44
2024/02/08 01:19:52;;;;;;;22.50;7.03;;;3.00;99.90;;;;;;5060466;28;20244;-46
2024/02/08 01:22:19;;;;;;;26.95;7.03;;;3.00;99.90;;;;;;5061879;28;20214;-48
2024/02/08 01:24:48;;;;;;;24.80;6.53;;;3.00;99.90;;;;;;5061759;28;20214;-45
2024/02/08 01:27:14;;;;;;;19.00;6.60;;;3.00;99.90;;;;;;5062263;28;20263;-45
2024/02/08 01:29:40;;;;;;;26.27;6.53;;;3.00;99.90;;;;;;5060789;28;20190;-47
2024/02/08 01:32:06;;;;;;;23.08;6.25;;;3.10;99.90;;;;;;5062253;28;20601;-47
2024/02/08 01:34:31;;;;;;;19.88;6.15;;;3.00;99.90;;;;;;5061158;28;20226;-44
2024/02/08 01:37:00;;;;;;;25.83;6.38;;;3.00;99.90;;;;;;5062075;28;20399;-46
2024/02/08 01:39:26;;;;;;;24.05;6.78;;;3.00;99.90;;;;;;5061889;28;21694;-46
2024/02/08 01:41:52;;;;;;;25.98;6.45;;;3.10;99.90;;;;;;5061382;28;20209;-44
2024/02/08 01:44:18;;;;;;;29.65;6.05;;;3.00;99.90;;;;;;5059754;28;20220;-42
2024/02/08 01:46:44;;;;;;;23.80;5.75;;;3.00;99.90;;;;;;5061808;28;20202;-48
2024/02/08 01:49:29;;;;;;;25.95;5.80;;;3.00;99.90;;;;;;5060576;28;20187;-46
2024/02/08 01:52:03;;;;;;;21.67;5.60;;;3.10;99.90;;;;;;5061263;28;20225;-48
2024/02/08 01:54:29;;;;;;;19.10;5.80;;;3.00;99.90;;;;;;5061257;28;20586;-44
2024/02/08 01:57:08;;;;;;;20.13;5.25;;;3.00;99.90;;;;;;5061497;28;20202;-48
2024/02/08 01:59:33;;;;;;;18.77;4.60;;;3.00;99.90;;;;;;5076860;28;20271;-46
2024/02/08 02:02:01;;;;;;;22.40;4.82;;;3.00;99.90;;;;;;5060735;28;20222;-46
2024/02/08 02:04:30;;;;;;;25.52;5.00;;;3.10;99.90;;;;;;5061374;28;20634;-42
2024/02/08 02:07:00;;;;;;;17.48;4.75;;;3.00;99.90;;;;;;5077162;28;20800;-43
2024/02/08 02:09:30;;;;;;;23.05;5.50;;;3.00;99.90;;;;;;5060909;28;20249;-42
2024/02/08 02:12:16;;;;;;;15.55;4.20;;;3.00;99.90;;;;;;5060912;28;20195;-46
2024/02/08 02:14:46;;;;;;;16.20;4.90;;;3.00;99.90;;;;;;5060337;28;20191;-40
2024/02/08 02:17:13;;;;;;;22.50;5.13;;;3.10;99.90;;;;;;5060661;28;20175;-44
2024/02/08 02:19:39;;;;;;;20.88;4.90;;;3.10;99.90;;;;;;5060769;28;20191;-44
2024/02/08 02:22:07;;;;;;;19.85;4.70;;;3.10;99.90;;;;;;5060931;28;20202;-50
2024/02/08 02:24:37;;;;;;;23.05;4.85;;;3.10;99.90;;;;;;5061149;28;20210;-42
2024/02/08 02:27:05;;;;;;;19.75;4.57;;;3.10;99.90;;;;;;5060282;28;20733;-43
2024/02/08 02:29:32;;;;;;;20.40;4.90;;;3.10;99.90;;;;;;5060828;28;20183;-43
2024/02/08 02:31:59;;;;;;;20.73;5.03;;;3.10;99.90;;;;;;5060125;28;20222;-43
2024/02/08 02:34:27;;;;;;;18.10;4.75;;;3.10;99.90;;;;;;5060593;28;20245;-47
2024/02/08 02:36:58;;;;;;;27.55;4.70;;;3.10;99.90;;;;;;5060762;28;20650;-44
2024/02/08 02:39:25;;;;;;;19.98;4.55;;;3.00;99.90;;;;;;5060598;28;20206;-46
2024/02/08 02:41:54;;;;;;;16.00;4.65;;;3.00;99.90;;;;;;5060627;28;20202;-44
2024/02/08 02:44:23;;;;;;;22.48;4.10;;;3.10;99.90;;;;;;5072969;28;20190;-47
2024/02/08 02:46:53;;;;;;;20.02;4.28;;;3.00;99.90;;;;;;5060740;28;20201;-47
2024/02/08 02:49:21;;;;;;;16.17;4.53;;;3.00;99.90;;;;;;5059788;28;20197;-44
2024/02/08 02:51:52;;;;;;;22.58;4.68;;;3.00;99.90;;;;;;5060837;28;20190;-49
2024/02/08 02:54:21;;;;;;;25.50;5.28;;;3.10;99.90;;;;;;5060383;28;20284;-47
2024/02/08 02:56:48;;;;;;;21.67;4.97;;;3.10;99.90;;;;;;5060461;28;20204;-44
2024/02/08 02:59:17;;;;;;;19.23;4.93;;;3.10;99.90;;;;;;5060464;28;20194;-49
2024/02/08 03:01:49;;;;;;;18.38;5.40;;;3.10;99.90;;;;;;5060675;28;20244;-45
2024/02/08 03:04:18;;;;;;;17.55;5.10;;;3.10;99.90;;;;;;5059986;28;20260;-46
2024/02/08 03:06:45;;;;;;;16.90;5.15;;;3.10;99.90;;;;;;5061511;28;20189;-47
2024/02/08 03:09:23;;;;;;;20.65;4.85;;;3.10;99.90;;;;;;5064296;28;20292;-54
2024/02/08 03:11:50;;;;;;;14.20;4.10;;;3.10;99.90;;;;;;5064381;28;20580;-45
2024/02/08 03:14:18;;;;;;;17.75;4.80;;;3.10;99.90;;;;;;5064668;28;20196;-47
2024/02/08 03:16:45;;;;;;;18.50;4.38;;;3.20;99.90;;;;;;5063682;28;20198;-44
2024/02/08 03:19:11;;;;;;;22.35;4.63;;;3.10;99.90;;;;;;5064771;28;20213;-44
2024/02/08 03:21:40;;;;;;;22.30;4.90;;;3.10;99.90;;;;;;5062721;28;20226;-41
2024/02/08 03:24:09;;;;;;;17.83;4.45;;;3.10;99.90;;;;;;5063188;28;20194;-42
2024/02/08 03:26:40;;;;;;;26.75;5.03;;;3.10;99.90;;;;;;5077520;28;20199;-44
2024/02/08 03:29:11;;;;;;;24.27;4.93;;;3.10;99.90;;;;;;5064508;28;20730;-47
2024/02/08 03:31:45;;;;;;;14.02;4.55;;;3.10;99.90;;;;;;5064186;28;20837;-43
2024/02/08 03:34:29;;;;;;;20.70;4.85;;;3.10;99.90;;;;;;5064238;28;20229;-45
2024/02/08 03:36:56;;;;;;;20.95;4.88;;;3.10;99.90;;;;;;5063624;28;20182;-47
2024/02/08 03:39:25;;;;;;;19.42;4.43;;;3.20;99.90;;;;;;5064286;28;20200;-45
2024/02/08 03:42:02;;;;;;;18.80;4.35;;;3.20;99.90;;;;;;5063535;28;20678;-46
2024/02/08 03:44:30;;;;;;;23.73;4.75;;;3.20;99.90;;;;;;5063801;28;20190;-47
2024/02/08 03:47:04;;;;;;;19.92;4.50;;;3.20;99.90;;;;;;5063419;28;20453;-43
2024/02/08 03:49:49;;;;;;;18.80;4.63;;;3.20;99.90;;;;;;5078788;28;20186;-47
2024/02/08 03:52:17;;;;;;;22.10;4.90;;;3.30;99.90;;;;;;5063705;28;20170;-44
2024/02/08 03:54:45;;;;;;;17.77;4.65;;;3.30;99.90;;;;;;5063297;28;20279;-46
2024/02/08 03:57:13;;;;;;;20.20;5.13;;;3.30;99.90;;;;;;5061883;28;20656;-42
2024/02/08 03:59:40;;;;;;;14.93;4.10;;;3.30;99.90;;;;;;5063711;28;20190;-49
2024/02/08 04:02:09;;;;;;;22.10;4.78;;;3.30;99.90;;;;;;5062528;28;20566;-47
2024/02/08 04:04:53;;;;;;;21.73;4.18;;;3.30;99.90;;;;;;5063269;28;20202;-47
2024/02/08 04:07:34;;;;;;;24.05;4.80;;;3.20;99.90;;;;;;5063143;28;20195;-44
2024/02/08 04:10:13;;;;;;;20.25;4.88;;;3.20;99.90;;;;;;5063632;28;20186;-43
2024/02/08 04:54:02;;;;;;;24.52;5.57;;;2.80;99.90;;;;;;5062780;28;21028;-46
2024/02/08 04:56:28;;;;;;;19.85;4.65;;;2.70;99.90;;;;;;5062514;28;20198;-46
2024/02/08 04:58:54;;;;;;;17.50;4.88;;;2.70;99.90;;;;;;5062989;28;20280;-44
2024/02/08 05:01:20;;;;;;;22.48;5.47;;;2.70;99.90;;;;;;5062302;28;20242;-49
2024/02/08 05:03:46;;;;;;;24.90;4.80;;;2.70;99.90;;;;;;5061728;28;20225;-46
2024/02/08 05:06:18;;;;;;;17.85;4.85;;;2.70;99.90;;;;;;5062178;28;20175;-47
2024/02/08 05:08:48;;;;;;;18.60;4.78;;;2.70;99.90;;;;;;5061967;28;20190;-42
2024/02/08 05:11:15;;;;;;;29.80;4.70;;;2.70;99.90;;;;;;5061799;28;20979;-47
2024/02/08 05:13:51;;;;;;;18.88;4.00;;;2.70;99.90;;;;;;5060252;28;20191;-45
2024/02/08 05:16:18;;;;;;;21.48;4.75;;;2.70;99.90;;;;;;5061067;28;20193;-47
2024/02/08 05:18:45;;;;;;;21.50;4.57;;;2.70;99.90;;;;;;5061903;28;20646;-44
2024/02/08 05:21:12;;;;;;;17.60;4.20;;;2.70;99.90;;;;;;5061520;28;20210;-46
2024/02/08 05:23:38;;;;;;;19.17;4.63;;;2.70;99.90;;;;;;5061638;28;20190;-44
2024/02/08 05:26:12;;;;;;;13.93;4.70;;;2.80;99.90;;;;;;5076449;28;20217;-45
2024/02/08 05:28:38;;;;;;;18.23;4.75;;;2.80;99.90;;;;;;5059344;28;20186;-49
2024/02/08 05:31:08;;;;;;;23.77;4.68;;;2.90;99.90;;;;;;5077231;28;20432;-43
2024/02/08 05:33:34;;;;;;;19.90;4.75;;;2.90;99.90;;;;;;5061320;28;20230;-43
2024/02/08 05:36:06;;;;;;;18.92;5.13;;;3.00;99.90;;;;;;5061292;28;20191;-48
2024/02/08 05:38:41;;;;;;;25.45;5.03;;;3.00;99.90;;;;;;5061916;28;20186;-46
2024/02/08 05:41:08;;;;;;;21.60;4.63;;;3.10;99.90;;;;;;5060065;28;20329;-42
2024/02/08 05:43:47;;;;;;;14.82;4.85;;;3.20;99.90;;;;;;5049126;28;20191;-46
2024/02/08 05:46:28;;;;;;;18.55;4.28;;;3.20;99.90;;;;;;5060702;28;20184;-46
2024/02/08 05:49:25;;;;;;;18.55;4.43;;;3.30;99.90;;;;;;5075909;28;20248;-43
2024/02/08 05:51:51;;;;;;;13.57;4.15;;;3.30;99.90;;;;;;5060532;28;20298;-43
2024/02/08 05:54:22;;;;;;;24.20;4.55;;;3.40;99.90;;;;;;5060886;28;20247;-41
2024/02/08 05:56:49;;;;;;;34.38;4.97;;;3.40;99.90;;;;;;5061222;28;20201;-45
2024/02/08 05:59:18;;;;;;;18.05;4.63;;;3.50;99.90;;;;;;5061401;28;20191;-44
2024/02/08 06:01:50;;;;;;;15.52;4.93;;;3.50;99.90;;;;;;5060870;28;20218;-48
2024/02/08 06:04:25;;;;;;;18.83;3.90;;;3.50;99.90;;;;;;5061359;28;20720;-44
2024/02/08 06:07:07;;;;;;;21.58;4.57;;;3.60;99.90;;;;;;5060347;28;20277;-45
2024/02/08 06:15:14;;;;;;;18.10;4.95;;;3.70;99.90;;;;;;5059249;28;20281;-45
2024/02/08 06:17:45;;;;;;;14.52;4.50;;;3.80;99.90;;;;;;5060636;28;20186;-43
2024/02/08 06:20:14;;;;;;;23.88;5.35;;;3.80;99.90;;;;;;5060941;28;20722;-42
2024/02/08 06:22:43;;;;;;;19.60;4.50;;;3.80;99.90;;;;;;5060854;28;20209;-45
2024/02/08 06:25:27;;;;;;;22.85;4.68;;;3.90;99.90;;;;;;5060736;28;20262;-41
2024/02/08 06:27:56;;;;;;;17.55;4.68;;;3.90;99.90;;;;;;5048025;28;20191;-50
2024/02/08 06:30:25;;;;;;;16.27;4.20;;;3.90;99.90;;;;;;5060764;28;20187;-41
2024/02/08 06:33:07;;;;;;;20.10;4.07;;;3.90;99.90;;;;;;5059793;28;20518;-49
2024/02/08 06:35:36;;;;;;;29.05;4.32;;;4.00;99.90;;;;;;5059928;28;20194;-48
2024/02/08 06:38:13;;;;;;;18.77;4.22;;;4.00;99.90;;;;;;5060710;28;20278;-42
2024/02/08 06:40:50;;;;;;;19.00;4.78;;;4.10;99.90;;;;;;5060170;28;20190;-48
2024/02/08 07:37:48;;;;;;;23.15;5.28;;;4.50;99.90;;;;;;5059376;28;20712;-47
2024/02/08 07:40:23;;;;;;;18.70;5.35;;;4.60;99.90;;;;;;5058193;28;20187;-45
2024/02/08 07:43:11;;;;;;;24.05;6.82;;;4.60;99.90;;;;;;5058676;28;20717;-42
2024/02/08 07:45:37;;;;;;;30.17;9.50;;;4.60;99.90;;;;;;5059380;28;20194;-47
2024/02/08 07:48:10;;;;;;;25.55;6.38;;;4.60;99.90;;;;;;5058398;28;20195;-46
2024/02/08 07:50:44;;;;;;;24.25;6.47;;;4.60;99.90;;;;;;5059229;28;20662;-47
2024/02/08 07:53:28;;;;;;;21.65;5.97;;;4.60;99.90;;;;;;5061611;28;20627;-49
2024/02/08 07:55:58;;;;;;;19.58;6.00;;;4.70;99.90;;;;;;5063151;28;20205;-46
2024/02/08 07:58:27;;;;;;;25.77;5.97;;;4.70;99.90;;;;;;5061733;28;20574;-46
2024/02/08 08:00:56;;;;;;;25.75;5.72;;;4.70;99.90;;;;;;5063100;28;20199;-41
2024/02/08 08:03:31;;;;;;;18.30;6.53;;;4.70;99.90;;;;;;5062393;28;21286;-47
2024/02/08 08:05:57;;;;;;;21.10;6.57;;;4.80;99.90;;;;;;5063280;28;20197;-48
2024/02/08 08:08:28;;;;;;;22.40;5.63;;;4.80;99.90;;;;;;5062837;28;20191;-44
2024/02/08 08:11:04;;;;;;;24.92;6.30;;;4.90;99.90;;;;;;5063133;28;20205;-46
2024/02/08 08:18:58;;;;;;;24.95;8.85;;;5.00;99.90;;;;;;5062388;28;20187;-47
2024/02/08 08:21:29;;;;;;;17.98;7.25;;;5.00;99.90;;;;;;5061053;28;20218;-50
2024/02/08 08:24:02;;;;;;;27.40;6.07;;;5.00;99.90;;;;;;5061822;28;20186;-49
2024/02/08 08:26:39;;;;;;;18.00;6.97;;;5.10;99.90;;;;;;5062899;28;20294;-46
2024/02/08 08:29:16;;;;;;;18.50;6.63;;;5.10;99.90;;;;;;5062227;28;20278;-48
2024/02/08 08:31:52;;;;;;;21.50;6.28;;;5.20;99.90;;;;;;5062577;28;20194;-47
2024/02/08 08:36:58;;;;;;;22.27;6.25;;;5.30;99.90;;;;;;5062407;28;20217;-50
2024/02/08 08:42:17;;;;;;;21.45;6.60;;;5.40;99.90;;;;;;5061304;28;20828;-49
2024/02/08 08:44:48;;;;;;;20.75;6.75;;;5.30;99.90;;;;;;5059292;28;20650;-44
2024/02/08 08:47:16;;;;;;;20.50;6.57;;;5.40;99.90;;;;;;5076297;28;20289;-44
2024/02/08 08:49:42;;;;;;;24.27;7.20;;;5.40;99.90;;;;;;5092693;28;21147;-48
2024/02/08 08:52:09;;;;;;;22.73;7.18;;;5.50;99.90;;;;;;5062241;28;20201;-45
2024/02/08 08:54:36;;;;;;;19.48;7.57;;;5.50;99.90;;;;;;5061745;28;20224;-51
2024/02/08 08:57:12;;;;;;;37.70;15.65;;;5.60;99.90;;;;;;5043498;28;20681;-49
2024/02/08 08:59:42;;;;;;;29.75;9.63;;;5.60;99.90;;;;;;5060853;28;20194;-51
2024/02/08 09:02:09;;;;;;;25.02;8.02;;;5.70;99.90;;;;;;5061958;28;21002;-48
2024/02/08 09:04:35;;;;;;;30.33;8.27;;;5.70;99.90;;;;;;5060674;28;20186;-48
2024/02/08 09:07:11;;;;;;;29.23;7.65;;;5.80;99.90;;;;;;5060708;28;20190;-48
2024/02/08 09:10:00;;;;;;;25.60;7.95;;;5.80;99.90;;;;;;5058819;28;20193;-46
2024/02/08 09:12:30;;;;;;;30.63;8.55;;;5.80;99.90;;;;;;5061498;28;20285;-46
2024/02/08 09:14:59;;;;;;;22.55;8.32;;;5.90;99.90;;;;;;5059041;28;20304;-50
2024/02/08 09:17:51;;;;;;;25.63;9.02;;;6.00;99.90;;;;;;5059529;28;20229;-47
2024/02/08 09:20:20;;;;;;;24.40;8.82;;;6.00;99.90;;;;;;5093692;28;20195;-49
2024/02/08 09:22:49;;;;;;;27.20;8.18;;;6.00;99.90;;;;;;5061533;28;20206;-49
2024/02/08 09:25:16;;;;;;;28.10;8.10;;;6.10;99.90;;;;;;5061739;28;20989;-47
2024/02/08 09:27:47;;;;;;;27.55;7.47;;;6.20;99.90;;;;;;5061556;28;20178;-52
2024/02/08 09:30:15;;;;;;;28.63;7.82;;;6.20;99.90;;;;;;5060142;28;20653;-44
2024/02/08 09:32:44;;;;;;;26.30;8.48;;;6.30;99.90;;;;;;5060947;28;20205;-44
2024/02/08 09:35:13;;;;;;;30.88;8.50;;;6.30;99.90;;;;;;5059150;28;20215;-47
2024/02/08 09:37:47;;;;;;;29.20;9.32;;;6.40;99.90;;;;;;5061422;28;20194;-51
2024/02/08 09:43:16;;;;;;;28.95;9.43;;;6.50;99.90;;;;;;5062005;28;20283;-44
2024/02/08 09:46:05;;;;;;;29.55;9.10;;;6.60;99.90;;;;;;5060994;28;20274;-48
2024/02/08 09:48:42;;;;;;;24.27;9.00;;;6.60;99.90;;;;;;5060888;28;20178;-46
2024/02/08 09:51:25;;;;;;;32.88;9.65;;;6.60;99.90;;;;;;5060736;28;20243;-47
2024/02/08 09:53:51;;;;;;;29.42;9.68;;;6.70;99.90;;;;;;5060515;28;20201;-48
2024/02/08 09:56:39;;;;;;;39.83;10.77;;;6.70;99.90;;;;;;5059768;28;20195;-45
2024/02/08 09:59:18;;;;;;;36.72;11.05;;;6.80;99.90;;;;;;5057196;28;20186;-49
2024/02/08 10:01:44;;;;;;;25.30;11.85;;;6.80;99.90;;;;;;5089854;28;20214;-49
2024/02/08 10:04:19;;;;;;;28.48;11.18;;;6.90;99.90;;;;;;5060227;28;20302;-42
2024/02/08 10:06:45;;;;;;;35.85;13.50;;;6.90;99.90;;;;;;5042197;28;20217;-50
2024/02/08 10:12:06;;;;;;;30.15;8.98;;;7.00;99.90;;;;;;5060840;28;20209;-47
2024/02/08 10:14:36;;;;;;;30.58;7.38;;;7.10;99.90;;;;;;5059834;28;20304;-47
2024/02/08 10:17:58;;;;;;;19.60;7.35;;;7.10;99.90;;;;;;5060009;28;20190;-48
2024/02/08 10:23:00;;;;;;;22.15;7.70;;;7.20;99.90;;;;;;5060473;28;20222;-49
2024/02/08 10:28:21;;;;;;;27.90;6.72;;;7.40;99.90;;;;;;5060775;28;20672;-47
2024/02/08 10:31:05;;;;;;;19.05;5.32;;;7.40;99.90;;;;;;5060677;28;20677;-44
2024/02/08 10:33:38;;;;;;;23.23;6.80;;;7.50;99.90;;;;;;5060361;28;20789;-52
2024/02/08 10:36:15;;;;;;;17.48;5.07;;;7.60;99.90;;;;;;5060861;28;20198;-45
2024/02/08 10:38:56;;;;;;;26.10;5.85;;;7.60;99.90;;;;;;5061011;28;20241;-49
2024/02/08 10:41:28;;;;;;;33.67;10.57;;;7.70;99.90;;;;;;5060176;28;20226;-45
2024/02/08 10:43:59;;;;;;;23.25;4.85;;;7.80;99.90;;;;;;5059973;28;20704;-46
2024/02/08 10:46:34;;;;;;;26.40;8.32;;;7.80;99.90;;;;;;5059783;28;20222;-49
2024/02/08 10:49:01;;;;;;;20.73;5.70;;;7.70;99.90;;;;;;5058058;28;20197;-50
2024/02/08 10:51:28;;;;;;;18.52;5.90;;;7.80;99.90;;;;;;5059164;28;20651;-52
2024/02/08 10:54:05;;;;;;;25.00;5.10;;;7.80;99.90;;;;;;5060271;28;20190;-50
2024/02/08 10:56:40;;;;;;;18.33;4.97;;;7.80;99.90;;;;;;5060087;28;20186;-52
2024/02/08 10:59:10;;;;;;;19.88;4.97;;;7.80;99.90;;;;;;5059745;28;20190;-43
2024/02/08 11:04:20;;;;;;;16.67;4.32;;;7.90;99.90;;;;;;5059575;28;20715;-53
2024/02/08 11:07:06;;;;;;;23.48;4.05;;;7.90;99.90;;;;;;5058683;28;20182;-50
2024/02/08 11:09:36;;;;;;;20.75;4.28;;;7.80;99.90;;;;;;5060145;28;20203;-48
2024/02/08 11:12:11;;;;;;;18.02;4.22;;;7.80;99.90;;;;;;5060621;28;20194;-51
2024/02/08 11:14:46;;;;;;;24.08;8.35;;;7.80;99.90;;;;;;5060117;28;20189;-48
2024/02/08 11:17:21;;;;;;;27.88;5.65;;;7.80;99.90;;;;;;5059399;28;20276;-48
2024/02/08 11:19:57;;;;;;;19.88;5.10;;;7.70;99.90;;;;;;5059957;28;20193;-47
2024/02/08 11:22:42;;;;;;;21.83;5.15;;;7.70;99.90;;;;;;5059654;28;20214;-47
2024/02/08 11:25:19;;;;;;;14.38;4.30;;;7.70;99.90;;;;;;5059544;28;20210;-48
2024/02/08 11:27:51;;;;;;;21.92;5.30;;;7.70;99.90;;;;;;5059480;28;20194;-53
2024/02/08 11:30:34;;;;;;;18.30;4.78;;;7.60;99.90;;;;;;5062592;28;20705;-49
2024/02/08 11:33:02;;;;;;;15.70;4.20;;;7.50;99.90;;;;;;5063336;28;20193;-44
2024/02/08 11:35:32;;;;;;;16.83;4.50;;;7.50;99.90;;;;;;5063039;28;20666;-44
2024/02/08 11:38:15;;;;;;;18.55;4.47;;;7.40;99.90;;;;;;5063422;28;20195;-48
2024/02/08 11:40:45;;;;;;;18.67;4.82;;;7.40;99.90;;;;;;5063867;28;20194;-49
2024/02/08 11:43:23;;;;;;;18.13;5.53;;;7.40;99.90;;;;;;5063053;28;20198;-48
2024/02/08 11:45:56;;;;;;;20.52;5.90;;;7.40;99.90;;;;;;5062698;28;20185;-49
2024/02/08 11:48:29;;;;;;;18.38;6.65;;;7.40;99.90;;;;;;5063736;28;20239;-49
2024/02/08 11:51:08;;;;;;;21.35;6.20;;;7.40;99.90;;;;;;5063232;28;20195;-44
2024/02/08 11:53:34;;;;;;;22.73;6.15;;;7.40;99.90;;;;;;5063164;28;20186;-51
2024/02/08 11:56:09;;;;;;;24.15;7.93;;;7.40;99.90;;;;;;5063279;28;20199;-46
2024/02/08 11:58:46;;;;;;;23.85;7.15;;;7.40;99.90;;;;;;5061408;28;20602;-46
2024/02/08 12:01:14;;;;;;;17.13;6.75;;;7.30;99.90;;;;;;5063072;28;20218;-44
2024/02/08 12:03:43;;;;;;;17.80;6.10;;;7.20;99.90;;;;;;5061331;28;20225;-49
2024/02/08 12:06:18;;;;;;;17.90;5.75;;;7.20;99.90;;;;;;5063872;28;20186;-51
2024/02/08 12:09:03;;;;;;;23.15;5.22;;;7.10;99.90;;;;;;5062664;28;20756;-47
2024/02/08 12:11:30;;;;;;;19.70;4.70;;;7.10;99.90;;;;;;5062460;28;20193;-46
2024/02/08 12:14:16;;;;;;;12.63;4.43;;;7.00;99.90;;;;;;5062591;28;20194;-45
2024/02/08 12:16:50;;;;;;;16.77;3.90;;;7.00;99.90;;;;;;5062945;28;20186;-46
2024/02/08 12:19:17;;;;;;;18.35;4.80;;;7.00;99.90;;;;;;5062796;28;20213;-42
2024/02/08 12:21:43;;;;;;;18.65;4.07;;;7.00;99.90;;;;;;5062285;28;20211;-50
2024/02/08 12:24:15;;;;;;;18.33;4.38;;;6.90;99.90;;;;;;5061030;28;20190;-45
2024/02/08 12:26:43;;;;;;;19.02;3.60;;;6.90;99.90;;;;;;5062831;28;20209;-47
2024/02/08 12:29:16;;;;;;;18.45;3.38;;;6.90;99.90;;;;;;5062347;28;20186;-49
2024/02/08 12:31:47;;;;;;;19.92;3.55;;;6.90;99.90;;;;;;5062494;28;20344;-46
2024/02/08 12:34:17;;;;;;;15.45;3.85;;;7.00;99.90;;;;;;5062236;28;20762;-49
2024/02/08 12:36:46;;;;;;;18.55;3.88;;;7.00;99.90;;;;;;5062793;28;20308;-48
2024/02/08 12:39:18;;;;;;;14.02;3.83;;;7.00;99.90;;;;;;5058194;28;20199;-45
2024/02/08 12:41:49;;;;;;;19.85;4.13;;;7.00;99.90;;;;;;5077301;28;20262;-48
2024/02/08 12:44:20;;;;;;;13.75;3.90;;;7.00;99.90;;;;;;5062204;28;20197;-48
2024/02/08 12:46:52;;;;;;;19.48;3.95;;;7.00;99.90;;;;;;5063011;28;20182;-46
2024/02/08 12:49:18;;;;;;;17.08;4.10;;;7.00;99.90;;;;;;5047150;28;20218;-46
2024/02/08 12:51:44;;;;;;;18.73;4.07;;;7.00;99.90;;;;;;5061188;28;20750;-53
2024/02/08 12:54:14;;;;;;;13.30;3.60;;;7.00;99.90;;;;;;5061939;28;20631;-45
2024/02/08 12:56:40;;;;;;;16.77;3.22;;;7.00;99.90;;;;;;5060888;28;20673;-50
2024/02/08 12:59:06;;;;;;;17.77;3.30;;;7.00;99.90;;;;;;5061897;28;20175;-45
2024/02/08 13:01:47;;;;;;;14.77;3.58;;;6.90;99.90;;;;;;5062066;28;20272;-46
2024/02/08 13:04:17;;;;;;;29.23;4.75;;;6.90;99.90;;;;;;5062149;28;20559;-43
2024/02/08 13:06:43;;;;;;;21.15;5.78;;;6.90;99.90;;;;;;5061898;28;20289;-48
2024/02/08 13:09:44;;;;;;;25.08;5.68;;;6.80;99.90;;;;;;5044740;28;20190;-49
2024/02/08 13:12:14;;;;;;;18.58;4.22;;;6.80;99.90;;;;;;5059735;28;20265;-50
2024/02/08 13:14:48;;;;;;;19.98;4.00;;;6.80;99.90;;;;;;5077321;28;20248;-47
2024/02/08 13:17:26;;;;;;;20.83;4.00;;;6.80;99.90;;;;;;5062160;28;20208;-51
2024/02/08 13:19:55;;;;;;;15.48;4.30;;;6.80;99.90;;;;;;5061744;28;20647;-49
2024/02/08 13:22:24;;;;;;;22.17;4.60;;;6.80;99.90;;;;;;5061636;28;20233;-47
2024/02/08 13:24:57;;;;;;;31.98;6.60;;;6.80;99.90;;;;;;5059952;28;20198;-49
2024/02/08 13:27:30;;;;;;;18.92;4.45;;;6.80;99.90;;;;;;5062012;28;20744;-44
2024/02/08 13:29:59;;;;;;;18.42;4.72;;;6.70;99.90;;;;;;5061500;28;20174;-48
2024/02/08 13:32:29;;;;;;;22.80;4.70;;;6.70;99.90;;;;;;5062020;28;20647;-50
2024/02/08 13:35:07;;;;;;;20.10;4.35;;;6.70;99.90;;;;;;5060480;28;20269;-49
2024/02/08 13:37:35;;;;;;;21.15;4.60;;;6.70;99.90;;;;;;5061912;28;20201;-44
2024/02/08 13:40:03;;;;;;;17.60;4.50;;;6.60;99.90;;;;;;5061528;28;20186;-49
2024/02/08 13:42:29;;;;;;;19.83;4.68;;;6.60;99.90;;;;;;5048905;28;20743;-45
2024/02/08 13:44:57;;;;;;;19.67;3.97;;;6.60;99.90;;;;;;5061103;28;20187;-47
2024/02/08 13:47:27;;;;;;;19.05;3.70;;;6.50;99.90;;;;;;5060865;28;20225;-47
2024/02/08 13:49:54;;;;;;;18.00;4.15;;;6.50;99.90;;;;;;5060954;28;20182;-42
2024/02/08 13:52:26;;;;;;;23.05;4.07;;;6.50;99.90;;;;;;5061892;28;20190;-48
2024/02/08 13:54:52;;;;;;;20.52;4.25;;;6.40;99.90;;;;;;5059849;28;21189;-49
2024/02/08 13:57:22;;;;;;;14.18;3.38;;;6.50;99.90;;;;;;5060875;28;20259;-48
2024/02/08 13:59:51;;;;;;;13.10;3.53;;;6.40;99.90;;;;;;5061160;28;20342;-48
2024/02/08 14:02:18;;;;;;;11.70;2.47;;;6.40;99.90;;;;;;5060963;28;20203;-49
2024/02/08 14:04:58;;;;;;;12.60;2.95;;;6.30;99.90;;;;;;5058748;28;20248;-47
2024/02/08 14:07:29;;;;;;;11.20;2.80;;;6.20;99.90;;;;;;5060204;28;20547;-50
2024/02/08 14:09:59;;;;;;;10.82;3.38;;;6.10;99.90;;;;;;5060783;28;20195;-46
2024/02/08 14:12:28;;;;;;;9.18;3.17;;;6.00;99.90;;;;;;5060418;28;20218;-42
2024/02/08 14:14:57;;;;;;;10.10;2.60;;;6.00;99.90;;;;;;5060409;28;20646;-45
2024/02/08 14:17:27;;;;;;;6.50;1.88;;;5.90;99.90;;;;;;5059716;28;20681;-51
2024/02/08 14:19:56;;;;;;;3.72;1.80;;;5.90;99.90;;;;;;5060595;28;20183;-49
2024/02/08 14:22:24;;;;;;;6.22;1.58;;;5.80;99.90;;;;;;5059556;28;20218;-50
2024/02/08 14:24:52;;;;;;;6.88;1.83;;;5.80;99.90;;;;;;5059338;28;20265;-50
2024/02/08 14:27:19;;;;;;;6.10;1.58;;;5.60;99.90;;;;;;5060536;28;20204;-51
2024/02/08 14:29:48;;;;;;;6.13;1.98;;;5.60;99.90;;;;;;5058283;28;20191;-42
2024/02/08 14:32:14;;;;;;;6.18;1.80;;;5.50;99.90;;;;;;5060142;28;20191;-49
2024/02/08 14:34:40;;;;;;;7.13;2.10;;;5.40;99.90;;;;;;5060142;28;20241;-46
2024/02/08 14:37:07;;;;;;;6.53;2.15;;;5.40;99.90;;;;;;5075427;28;20635;-52
2024/02/08 14:39:34;;;;;;;6.50;1.80;;;5.40;99.90;;;;;;5058643;28;20225;-49
2024/02/08 14:42:10;;;;;;;9.55;2.63;;;5.30;99.90;;;;;;5060107;28;20226;-47
2024/02/08 14:44:41;;;;;;;3.38;1.77;;;5.20;99.90;;;;;;5060632;28;20254;-47
2024/02/08 14:47:08;;;;;;;5.18;1.83;;;5.20;99.90;;;;;;5059412;28;20297;-45
2024/02/08 14:50:48;;;;;;;5.45;1.95;;;5.10;99.90;;;;;;5059859;28;20241;-49
2024/02/08 14:52:26;;;;;;;11.20;2.65;;;5.10;99.90;;;;;;5038864;28;20259;-52
2024/02/08 14:54:59;;;;;;;10.00;3.17;;;5.00;99.90;;;;;;5060123;28;20230;-47
2024/02/08 14:57:38;;;;;;;10.88;3.95;;;4.90;99.90;;;;;;5060113;28;20190;-49
2024/02/08 15:00:57;;;;;;;18.20;7.38;;;4.90;99.90;;;;;;5060292;28;20202;-47
2024/02/08 15:02:55;;;;;;;19.13;9.68;;;4.80;99.90;;;;;;5053861;28;20989;-44
2024/02/08 15:05:40;;;;;;;19.67;10.23;;;4.70;99.90;;;;;;5062633;28;20198;-48
2024/02/08 15:11:08;;;;;;;9.88;5.32;;;4.60;99.90;;;;;;5064297;28;20198;-46
2024/02/08 15:13:49;;;;;;;13.77;5.43;;;4.60;99.90;;;;;;5054349;28;20221;-52
2024/02/08 15:16:30;;;;;;;15.05;5.85;;;4.60;99.90;;;;;;5063119;28;20558;-50
2024/02/08 15:18:57;;;;;;;12.40;5.00;;;4.60;99.90;;;;;;5063550;28;20240;-46